sensor_id;sensor_type;location;lat;lon;timestamp;P1;durP1;ratioP1;P2;durP2;ratioP2
42364;SDS011;28498;54.400;18.566;2024-02-16T00:01:08;30.45;;;16.42;;
42364;SDS011;28498;54.400;18.566;2024-02-16T00:03:35;34.63;;;15.52;;
42364;SDS011;28498;54.400;18.566;2024-02-16T00:06:02;33.65;;;14.95;;
42364;SDS011;28498;54.400;18.566;2024-02-16T00:08:30;30.63;;;14.80;;
42364;SDS011;28498;54.400;18.566;2024-02-16T00:10:57;29.50;;;15.02;;
42364;SDS011;28498;54.400;18.566;2024-02-16T00:13:25;29.83;;;14.20;;
42364;SDS011;28498;54.400;18.566;2024-02-16T00:15:52;35.22;;;16.83;;
42364;SDS011;28498;54.400;18.566;2024-02-16T00:18:19;31.00;;;15.68;;
42364;SDS011;28498;54.400;18.566;2024-02-16T00:20:46;32.05;;;15.38;;
42364;SDS011;28498;54.400;18.566;2024-02-16T00:23:13;31.15;;;15.95;;
42364;SDS011;28498;54.400;18.566;2024-02-16T00:25:41;35.38;;;16.17;;
42364;SDS011;28498;54.400;18.566;2024-02-16T00:28:08;32.78;;;14.23;;
42364;SDS011;28498;54.400;18.566;2024-02-16T00:30:35;28.88;;;14.63;;
42364;SDS011;28498;54.400;18.566;2024-02-16T00:33:03;31.92;;;15.82;;
42364;SDS011;28498;54.400;18.566;2024-02-16T00:35:30;29.48;;;13.82;;
42364;SDS011;28498;54.400;18.566;2024-02-16T00:38:00;28.73;;;14.80;;
42364;SDS011;28498;54.400;18.566;2024-02-16T00:40:27;26.75;;;13.93;;
42364;SDS011;28498;54.400;18.566;2024-02-16T00:42:54;32.63;;;14.20;;
42364;SDS011;28498;54.400;18.566;2024-02-16T00:45:21;28.70;;;13.90;;
42364;SDS011;28498;54.400;18.566;2024-02-16T00:47:49;31.75;;;15.75;;
42364;SDS011;28498;54.400;18.566;2024-02-16T00:50:16;28.70;;;14.48;;
42364;SDS011;28498;54.400;18.566;2024-02-16T00:52:43;30.98;;;14.63;;
42364;SDS011;28498;54.400;18.566;2024-02-16T00:55:12;26.65;;;13.73;;
42364;SDS011;28498;54.400;18.566;2024-02-16T00:57:40;29.58;;;14.55;;
42364;SDS011;28498;54.400;18.566;2024-02-16T01:00:07;30.10;;;13.85;;
42364;SDS011;28498;54.400;18.566;2024-02-16T01:02:35;29.42;;;13.65;;
42364;SDS011;28498;54.400;18.566;2024-02-16T01:05:03;28.05;;;12.93;;
42364;SDS011;28498;54.400;18.566;2024-02-16T01:07:31;24.48;;;13.52;;
42364;SDS011;28498;54.400;18.566;2024-02-16T01:09:59;25.85;;;13.43;;
42364;SDS011;28498;54.400;18.566;2024-02-16T01:12:26;26.50;;;13.45;;
42364;SDS011;28498;54.400;18.566;2024-02-16T01:14:53;26.77;;;13.75;;
42364;SDS011;28498;54.400;18.566;2024-02-16T01:17:21;28.45;;;13.77;;
42364;SDS011;28498;54.400;18.566;2024-02-16T01:19:48;25.08;;;12.15;;
42364;SDS011;28498;54.400;18.566;2024-02-16T01:22:15;28.25;;;13.70;;
42364;SDS011;28498;54.400;18.566;2024-02-16T01:24:42;29.48;;;14.45;;
42364;SDS011;28498;54.400;18.566;2024-02-16T01:27:09;25.48;;;13.43;;
42364;SDS011;28498;54.400;18.566;2024-02-16T01:29:37;25.40;;;13.35;;
42364;SDS011;28498;54.400;18.566;2024-02-16T01:32:04;25.10;;;12.48;;
42364;SDS011;28498;54.400;18.566;2024-02-16T01:34:31;29.80;;;14.13;;
42364;SDS011;28498;54.400;18.566;2024-02-16T01:36:59;29.13;;;13.95;;
42364;SDS011;28498;54.400;18.566;2024-02-16T01:39:29;33.38;;;13.85;;
42364;SDS011;28498;54.400;18.566;2024-02-16T01:41:56;33.75;;;15.50;;
42364;SDS011;28498;54.400;18.566;2024-02-16T01:44:23;29.33;;;14.35;;
42364;SDS011;28498;54.400;18.566;2024-02-16T01:46:50;31.80;;;15.38;;
42364;SDS011;28498;54.400;18.566;2024-02-16T01:49:18;28.73;;;14.15;;
42364;SDS011;28498;54.400;18.566;2024-02-16T01:51:45;30.23;;;13.68;;
42364;SDS011;28498;54.400;18.566;2024-02-16T01:54:13;29.67;;;14.23;;
42364;SDS011;28498;54.400;18.566;2024-02-16T01:56:44;34.70;;;15.38;;
42364;SDS011;28498;54.400;18.566;2024-02-16T01:59:13;32.55;;;14.85;;
42364;SDS011;28498;54.400;18.566;2024-02-16T02:01:40;33.53;;;15.30;;
42364;SDS011;28498;54.400;18.566;2024-02-16T02:04:07;38.33;;;17.85;;
42364;SDS011;28498;54.400;18.566;2024-02-16T02:06:35;31.85;;;15.30;;
42364;SDS011;28498;54.400;18.566;2024-02-16T02:09:03;38.05;;;17.05;;
42364;SDS011;28498;54.400;18.566;2024-02-16T02:11:30;34.88;;;16.08;;
42364;SDS011;28498;54.400;18.566;2024-02-16T02:13:57;36.33;;;17.23;;
42364;SDS011;28498;54.400;18.566;2024-02-16T02:16:24;37.00;;;16.63;;
42364;SDS011;28498;54.400;18.566;2024-02-16T02:18:53;35.95;;;17.17;;
42364;SDS011;28498;54.400;18.566;2024-02-16T02:21:21;39.95;;;18.20;;
42364;SDS011;28498;54.400;18.566;2024-02-16T02:23:48;38.28;;;17.27;;
42364;SDS011;28498;54.400;18.566;2024-02-16T02:26:15;41.65;;;18.33;;
42364;SDS011;28498;54.400;18.566;2024-02-16T02:28:45;40.63;;;17.52;;
42364;SDS011;28498;54.400;18.566;2024-02-16T02:31:12;44.17;;;18.92;;
42364;SDS011;28498;54.400;18.566;2024-02-16T02:33:40;33.92;;;17.15;;
42364;SDS011;28498;54.400;18.566;2024-02-16T02:36:07;41.40;;;17.50;;
42364;SDS011;28498;54.400;18.566;2024-02-16T02:38:34;42.83;;;18.55;;
42364;SDS011;28498;54.400;18.566;2024-02-16T02:41:01;44.35;;;19.63;;
42364;SDS011;28498;54.400;18.566;2024-02-16T02:43:33;45.42;;;19.02;;
42364;SDS011;28498;54.400;18.566;2024-02-16T02:46:00;49.88;;;19.45;;
42364;SDS011;28498;54.400;18.566;2024-02-16T02:48:28;40.75;;;18.33;;
42364;SDS011;28498;54.400;18.566;2024-02-16T02:50:55;50.33;;;18.40;;
42364;SDS011;28498;54.400;18.566;2024-02-16T02:53:23;42.03;;;19.42;;
42364;SDS011;28498;54.400;18.566;2024-02-16T02:55:50;47.53;;;18.75;;
42364;SDS011;28498;54.400;18.566;2024-02-16T02:58:17;44.35;;;20.00;;
42364;SDS011;28498;54.400;18.566;2024-02-16T03:00:44;46.20;;;20.83;;
42364;SDS011;28498;54.400;18.566;2024-02-16T03:03:11;45.30;;;19.55;;
42364;SDS011;28498;54.400;18.566;2024-02-16T03:05:41;44.45;;;19.50;;
42364;SDS011;28498;54.400;18.566;2024-02-16T03:08:08;41.50;;;19.58;;
42364;SDS011;28498;54.400;18.566;2024-02-16T03:10:37;49.90;;;19.90;;
42364;SDS011;28498;54.400;18.566;2024-02-16T03:13:05;50.85;;;19.98;;
42364;SDS011;28498;54.400;18.566;2024-02-16T03:15:36;55.80;;;21.20;;
42364;SDS011;28498;54.400;18.566;2024-02-16T03:18:04;48.33;;;21.45;;
42364;SDS011;28498;54.400;18.566;2024-02-16T03:20:35;58.22;;;20.95;;
42364;SDS011;28498;54.400;18.566;2024-02-16T03:23:02;51.63;;;21.65;;
42364;SDS011;28498;54.400;18.566;2024-02-16T03:25:30;53.40;;;21.27;;
42364;SDS011;28498;54.400;18.566;2024-02-16T03:27:57;50.40;;;21.25;;
42364;SDS011;28498;54.400;18.566;2024-02-16T03:30:24;50.38;;;21.80;;
42364;SDS011;28498;54.400;18.566;2024-02-16T03:32:51;51.67;;;20.30;;
42364;SDS011;28498;54.400;18.566;2024-02-16T03:35:21;57.03;;;23.58;;
42364;SDS011;28498;54.400;18.566;2024-02-16T03:37:48;54.50;;;22.10;;
42364;SDS011;28498;54.400;18.566;2024-02-16T03:40:15;56.63;;;22.02;;
42364;SDS011;28498;54.400;18.566;2024-02-16T03:42:43;51.85;;;21.08;;
42364;SDS011;28498;54.400;18.566;2024-02-16T03:45:10;59.03;;;24.63;;
42364;SDS011;28498;54.400;18.566;2024-02-16T03:47:39;59.42;;;21.90;;
42364;SDS011;28498;54.400;18.566;2024-02-16T03:50:08;58.47;;;22.10;;
42364;SDS011;28498;54.400;18.566;2024-02-16T03:52:36;54.83;;;21.02;;
42364;SDS011;28498;54.400;18.566;2024-02-16T03:55:03;49.35;;;22.40;;
42364;SDS011;28498;54.400;18.566;2024-02-16T03:57:32;59.97;;;21.83;;
42364;SDS011;28498;54.400;18.566;2024-02-16T03:59:59;57.30;;;22.52;;
42364;SDS011;28498;54.400;18.566;2024-02-16T04:02:26;61.97;;;24.25;;
42364;SDS011;28498;54.400;18.566;2024-02-16T04:04:53;64.07;;;25.25;;
42364;SDS011;28498;54.400;18.566;2024-02-16T04:07:20;58.17;;;23.00;;
42364;SDS011;28498;54.400;18.566;2024-02-16T04:09:47;59.33;;;23.23;;
42364;SDS011;28498;54.400;18.566;2024-02-16T04:12:14;56.67;;;23.73;;
42364;SDS011;28498;54.400;18.566;2024-02-16T04:14:41;56.95;;;24.45;;
42364;SDS011;28498;54.400;18.566;2024-02-16T04:17:09;59.95;;;23.92;;
42364;SDS011;28498;54.400;18.566;2024-02-16T04:19:37;60.30;;;24.02;;
42364;SDS011;28498;54.400;18.566;2024-02-16T04:22:04;71.28;;;28.60;;
42364;SDS011;28498;54.400;18.566;2024-02-16T04:24:31;74.03;;;25.63;;
42364;SDS011;28498;54.400;18.566;2024-02-16T04:26:58;72.60;;;26.50;;
42364;SDS011;28498;54.400;18.566;2024-02-16T04:29:25;76.35;;;27.38;;
42364;SDS011;28498;54.400;18.566;2024-02-16T04:31:52;67.60;;;25.92;;
42364;SDS011;28498;54.400;18.566;2024-02-16T04:34:19;63.63;;;26.73;;
42364;SDS011;28498;54.400;18.566;2024-02-16T04:36:46;67.30;;;26.38;;
42364;SDS011;28498;54.400;18.566;2024-02-16T04:39:14;61.00;;;25.02;;
42364;SDS011;28498;54.400;18.566;2024-02-16T04:41:41;61.15;;;23.00;;
42364;SDS011;28498;54.400;18.566;2024-02-16T04:44:08;56.33;;;25.67;;
42364;SDS011;28498;54.400;18.566;2024-02-16T04:46:35;63.33;;;24.50;;
42364;SDS011;28498;54.400;18.566;2024-02-16T04:49:02;61.95;;;24.65;;
42364;SDS011;28498;54.400;18.566;2024-02-16T04:51:29;62.63;;;26.80;;
42364;SDS011;28498;54.400;18.566;2024-02-16T04:53:56;63.17;;;25.25;;
42364;SDS011;28498;54.400;18.566;2024-02-16T04:56:23;61.53;;;23.88;;
42364;SDS011;28498;54.400;18.566;2024-02-16T04:58:50;61.88;;;24.30;;
42364;SDS011;28498;54.400;18.566;2024-02-16T05:01:17;64.40;;;27.13;;
42364;SDS011;28498;54.400;18.566;2024-02-16T05:03:44;57.42;;;23.75;;
42364;SDS011;28498;54.400;18.566;2024-02-16T05:06:12;58.75;;;26.63;;
42364;SDS011;28498;54.400;18.566;2024-02-16T05:08:39;57.65;;;24.10;;
42364;SDS011;28498;54.400;18.566;2024-02-16T05:11:06;58.10;;;24.83;;
42364;SDS011;28498;54.400;18.566;2024-02-16T05:13:35;63.88;;;25.75;;
42364;SDS011;28498;54.400;18.566;2024-02-16T05:16:07;61.67;;;24.73;;
42364;SDS011;28498;54.400;18.566;2024-02-16T05:18:37;55.53;;;23.50;;
42364;SDS011;28498;54.400;18.566;2024-02-16T05:21:06;59.17;;;24.60;;
42364;SDS011;28498;54.400;18.566;2024-02-16T05:23:33;55.05;;;23.38;;
42364;SDS011;28498;54.400;18.566;2024-02-16T05:26:00;58.72;;;24.92;;
42364;SDS011;28498;54.400;18.566;2024-02-16T05:28:27;59.90;;;25.52;;
42364;SDS011;28498;54.400;18.566;2024-02-16T05:30:54;61.67;;;26.30;;
42364;SDS011;28498;54.400;18.566;2024-02-16T05:33:22;66.70;;;26.40;;
42364;SDS011;28498;54.400;18.566;2024-02-16T05:35:49;61.40;;;25.67;;
42364;SDS011;28498;54.400;18.566;2024-02-16T05:38:21;68.47;;;27.35;;
42364;SDS011;28498;54.400;18.566;2024-02-16T05:40:59;58.70;;;24.27;;
42364;SDS011;28498;54.400;18.566;2024-02-16T05:43:26;67.07;;;26.05;;
42364;SDS011;28498;54.400;18.566;2024-02-16T05:45:53;68.68;;;28.05;;
42364;SDS011;28498;54.400;18.566;2024-02-16T05:48:20;60.83;;;26.80;;
42364;SDS011;28498;54.400;18.566;2024-02-16T05:50:51;60.72;;;25.23;;
42364;SDS011;28498;54.400;18.566;2024-02-16T05:53:18;62.58;;;25.65;;
42364;SDS011;28498;54.400;18.566;2024-02-16T05:55:45;70.32;;;27.35;;
42364;SDS011;28498;54.400;18.566;2024-02-16T05:58:14;66.78;;;28.00;;
42364;SDS011;28498;54.400;18.566;2024-02-16T06:00:41;65.57;;;27.95;;
42364;SDS011;28498;54.400;18.566;2024-02-16T06:03:09;62.33;;;27.13;;
42364;SDS011;28498;54.400;18.566;2024-02-16T06:05:36;70.00;;;27.35;;
42364;SDS011;28498;54.400;18.566;2024-02-16T06:08:03;70.57;;;27.38;;
42364;SDS011;28498;54.400;18.566;2024-02-16T06:10:30;61.50;;;26.80;;
42364;SDS011;28498;54.400;18.566;2024-02-16T06:12:57;64.20;;;28.17;;
42364;SDS011;28498;54.400;18.566;2024-02-16T06:15:24;64.22;;;27.33;;
42364;SDS011;28498;54.400;18.566;2024-02-16T06:17:51;62.20;;;28.58;;
42364;SDS011;28498;54.400;18.566;2024-02-16T06:20:19;73.13;;;29.85;;
42364;SDS011;28498;54.400;18.566;2024-02-16T06:22:47;67.80;;;28.65;;
42364;SDS011;28498;54.400;18.566;2024-02-16T06:25:14;64.82;;;27.13;;
42364;SDS011;28498;54.400;18.566;2024-02-16T06:27:42;67.00;;;27.42;;
42364;SDS011;28498;54.400;18.566;2024-02-16T06:30:09;66.15;;;28.55;;
42364;SDS011;28498;54.400;18.566;2024-02-16T06:32:40;64.80;;;28.50;;
42364;SDS011;28498;54.400;18.566;2024-02-16T06:35:07;66.97;;;27.35;;
42364;SDS011;28498;54.400;18.566;2024-02-16T06:37:35;60.90;;;26.88;;
42364;SDS011;28498;54.400;18.566;2024-02-16T06:40:04;58.03;;;27.23;;
42364;SDS011;28498;54.400;18.566;2024-02-16T06:42:32;54.70;;;26.20;;
42364;SDS011;28498;54.400;18.566;2024-02-16T06:45:00;57.13;;;25.85;;
42364;SDS011;28498;54.400;18.566;2024-02-16T06:47:28;63.30;;;27.58;;
42364;SDS011;28498;54.400;18.566;2024-02-16T06:49:55;58.30;;;27.33;;
42364;SDS011;28498;54.400;18.566;2024-02-16T06:52:22;57.95;;;25.25;;
42364;SDS011;28498;54.400;18.566;2024-02-16T06:54:50;54.75;;;25.00;;
42364;SDS011;28498;54.400;18.566;2024-02-16T06:57:18;59.75;;;26.92;;
42364;SDS011;28498;54.400;18.566;2024-02-16T06:59:46;58.70;;;27.58;;
42364;SDS011;28498;54.400;18.566;2024-02-16T07:02:13;55.33;;;25.27;;
42364;SDS011;28498;54.400;18.566;2024-02-16T07:04:41;60.72;;;29.33;;
42364;SDS011;28498;54.400;18.566;2024-02-16T07:07:09;56.45;;;27.17;;
42364;SDS011;28498;54.400;18.566;2024-02-16T07:09:36;60.80;;;29.65;;
42364;SDS011;28498;54.400;18.566;2024-02-16T07:12:06;56.00;;;26.55;;
42364;SDS011;28498;54.400;18.566;2024-02-16T07:14:33;51.53;;;26.98;;
42364;SDS011;28498;54.400;18.566;2024-02-16T07:17:01;56.58;;;27.90;;
42364;SDS011;28498;54.400;18.566;2024-02-16T07:19:28;57.33;;;28.80;;
42364;SDS011;28498;54.400;18.566;2024-02-16T07:21:55;50.35;;;27.10;;
42364;SDS011;28498;54.400;18.566;2024-02-16T07:24:22;55.72;;;26.70;;
42364;SDS011;28498;54.400;18.566;2024-02-16T07:26:49;52.95;;;26.80;;
42364;SDS011;28498;54.400;18.566;2024-02-16T07:29:16;51.15;;;26.15;;
42364;SDS011;28498;54.400;18.566;2024-02-16T07:31:43;50.28;;;26.65;;
42364;SDS011;28498;54.400;18.566;2024-02-16T07:34:10;47.90;;;24.60;;
42364;SDS011;28498;54.400;18.566;2024-02-16T07:36:38;52.78;;;26.60;;
42364;SDS011;28498;54.400;18.566;2024-02-16T07:39:05;50.38;;;25.55;;
42364;SDS011;28498;54.400;18.566;2024-02-16T07:41:32;49.47;;;26.20;;
42364;SDS011;28498;54.400;18.566;2024-02-16T07:43:59;50.38;;;26.80;;
42364;SDS011;28498;54.400;18.566;2024-02-16T07:46:26;47.20;;;24.23;;
42364;SDS011;28498;54.400;18.566;2024-02-16T07:48:53;47.63;;;24.35;;
42364;SDS011;28498;54.400;18.566;2024-02-16T07:51:21;50.20;;;25.15;;
42364;SDS011;28498;54.400;18.566;2024-02-16T07:53:48;48.97;;;23.90;;
42364;SDS011;28498;54.400;18.566;2024-02-16T07:56:15;47.05;;;23.83;;
42364;SDS011;28498;54.400;18.566;2024-02-16T07:58:43;46.75;;;23.60;;
42364;SDS011;28498;54.400;18.566;2024-02-16T08:01:11;48.05;;;24.88;;
42364;SDS011;28498;54.400;18.566;2024-02-16T08:03:42;46.47;;;23.23;;
42364;SDS011;28498;54.400;18.566;2024-02-16T08:06:09;46.95;;;24.33;;
42364;SDS011;28498;54.400;18.566;2024-02-16T08:08:36;41.15;;;23.27;;
42364;SDS011;28498;54.400;18.566;2024-02-16T08:11:04;44.67;;;23.38;;
42364;SDS011;28498;54.400;18.566;2024-02-16T08:13:31;41.70;;;23.65;;
42364;SDS011;28498;54.400;18.566;2024-02-16T08:15:58;39.05;;;21.45;;
42364;SDS011;28498;54.400;18.566;2024-02-16T08:18:25;40.67;;;22.33;;
42364;SDS011;28498;54.400;18.566;2024-02-16T08:20:52;41.85;;;22.77;;
42364;SDS011;28498;54.400;18.566;2024-02-16T08:23:19;44.10;;;23.00;;
42364;SDS011;28498;54.400;18.566;2024-02-16T08:25:47;41.40;;;21.90;;
42364;SDS011;28498;54.400;18.566;2024-02-16T08:28:14;37.88;;;21.10;;
42364;SDS011;28498;54.400;18.566;2024-02-16T08:30:41;48.55;;;22.23;;
42364;SDS011;28498;54.400;18.566;2024-02-16T08:33:10;39.65;;;21.90;;
42364;SDS011;28498;54.400;18.566;2024-02-16T08:35:39;40.60;;;22.85;;
42364;SDS011;28498;54.400;18.566;2024-02-16T08:38:06;44.50;;;21.75;;
42364;SDS011;28498;54.400;18.566;2024-02-16T08:40:37;40.15;;;20.70;;
42364;SDS011;28498;54.400;18.566;2024-02-16T08:43:05;39.17;;;21.05;;
42364;SDS011;28498;54.400;18.566;2024-02-16T08:45:33;38.95;;;21.45;;
42364;SDS011;28498;54.400;18.566;2024-02-16T08:48:01;41.67;;;19.98;;
42364;SDS011;28498;54.400;18.566;2024-02-16T08:50:31;38.72;;;21.63;;
42364;SDS011;28498;54.400;18.566;2024-02-16T08:52:58;39.28;;;21.38;;
42364;SDS011;28498;54.400;18.566;2024-02-16T08:55:25;37.75;;;20.98;;
42364;SDS011;28498;54.400;18.566;2024-02-16T08:57:52;40.53;;;21.83;;
42364;SDS011;28498;54.400;18.566;2024-02-16T09:00:19;39.90;;;21.02;;
42364;SDS011;28498;54.400;18.566;2024-02-16T09:02:46;42.22;;;21.45;;
42364;SDS011;28498;54.400;18.566;2024-02-16T09:05:14;37.97;;;20.88;;
42364;SDS011;28498;54.400;18.566;2024-02-16T09:07:41;37.42;;;20.17;;
42364;SDS011;28498;54.400;18.566;2024-02-16T09:10:08;37.45;;;20.38;;
42364;SDS011;28498;54.400;18.566;2024-02-16T09:12:35;40.72;;;21.58;;
42364;SDS011;28498;54.400;18.566;2024-02-16T09:15:02;37.65;;;19.88;;
42364;SDS011;28498;54.400;18.566;2024-02-16T09:17:30;39.53;;;20.77;;
42364;SDS011;28498;54.400;18.566;2024-02-16T09:19:58;41.85;;;20.33;;
42364;SDS011;28498;54.400;18.566;2024-02-16T09:22:25;35.55;;;19.30;;
42364;SDS011;28498;54.400;18.566;2024-02-16T09:24:55;33.25;;;18.83;;
42364;SDS011;28498;54.400;18.566;2024-02-16T09:27:26;33.00;;;19.55;;
42364;SDS011;28498;54.400;18.566;2024-02-16T09:29:54;35.28;;;18.88;;
42364;SDS011;28498;54.400;18.566;2024-02-16T09:32:22;32.00;;;18.88;;
42364;SDS011;28498;54.400;18.566;2024-02-16T09:34:49;32.78;;;19.15;;
42364;SDS011;28498;54.400;18.566;2024-02-16T09:37:18;29.95;;;18.13;;
42364;SDS011;28498;54.400;18.566;2024-02-16T09:39:45;33.95;;;18.67;;
42364;SDS011;28498;54.400;18.566;2024-02-16T09:42:12;31.95;;;17.83;;
42364;SDS011;28498;54.400;18.566;2024-02-16T09:44:41;30.95;;;18.27;;
42364;SDS011;28498;54.400;18.566;2024-02-16T09:47:11;29.88;;;17.48;;
42364;SDS011;28498;54.400;18.566;2024-02-16T09:49:39;30.15;;;18.50;;
42364;SDS011;28498;54.400;18.566;2024-02-16T09:52:09;34.15;;;18.20;;
42364;SDS011;28498;54.400;18.566;2024-02-16T09:54:38;30.95;;;18.33;;
42364;SDS011;28498;54.400;18.566;2024-02-16T09:57:06;29.65;;;18.33;;
42364;SDS011;28498;54.400;18.566;2024-02-16T09:59:33;33.72;;;17.27;;
42364;SDS011;28498;54.400;18.566;2024-02-16T10:02:04;30.15;;;17.90;;
42364;SDS011;28498;54.400;18.566;2024-02-16T10:04:34;32.53;;;18.38;;
42364;SDS011;28498;54.400;18.566;2024-02-16T10:07:03;28.83;;;16.20;;
42364;SDS011;28498;54.400;18.566;2024-02-16T10:09:38;29.52;;;16.80;;
42364;SDS011;28498;54.400;18.566;2024-02-16T10:12:08;27.48;;;16.02;;
42364;SDS011;28498;54.400;18.566;2024-02-16T10:14:36;29.98;;;17.88;;
42364;SDS011;28498;54.400;18.566;2024-02-16T10:17:07;28.65;;;16.23;;
42364;SDS011;28498;54.400;18.566;2024-02-16T10:19:36;34.17;;;17.75;;
42364;SDS011;28498;54.400;18.566;2024-02-16T10:22:11;28.10;;;15.40;;
42364;SDS011;28498;54.400;18.566;2024-02-16T10:24:40;30.02;;;16.63;;
42364;SDS011;28498;54.400;18.566;2024-02-16T10:27:14;31.88;;;16.90;;
42364;SDS011;28498;54.400;18.566;2024-02-16T10:29:47;27.60;;;16.50;;
42364;SDS011;28498;54.400;18.566;2024-02-16T10:32:17;26.88;;;16.95;;
42364;SDS011;28498;54.400;18.566;2024-02-16T10:34:46;26.52;;;15.93;;
42364;SDS011;28498;54.400;18.566;2024-02-16T10:37:16;31.10;;;17.20;;
42364;SDS011;28498;54.400;18.566;2024-02-16T10:39:44;29.48;;;15.63;;
42364;SDS011;28498;54.400;18.566;2024-02-16T10:42:11;30.58;;;16.10;;
42364;SDS011;28498;54.400;18.566;2024-02-16T10:44:41;30.13;;;16.63;;
42364;SDS011;28498;54.400;18.566;2024-02-16T10:47:10;26.60;;;15.15;;
42364;SDS011;28498;54.400;18.566;2024-02-16T10:49:37;26.70;;;16.30;;
42364;SDS011;28498;54.400;18.566;2024-02-16T10:52:04;23.50;;;13.45;;
42364;SDS011;28498;54.400;18.566;2024-02-16T10:54:33;24.23;;;14.75;;
42364;SDS011;28498;54.400;18.566;2024-02-16T10:57:01;22.35;;;14.02;;
42364;SDS011;28498;54.400;18.566;2024-02-16T10:59:37;23.50;;;14.45;;
42364;SDS011;28498;54.400;18.566;2024-02-16T11:02:09;22.65;;;13.32;;
42364;SDS011;28498;54.400;18.566;2024-02-16T11:04:37;21.52;;;14.13;;
42364;SDS011;28498;54.400;18.566;2024-02-16T11:07:18;25.67;;;13.45;;
42364;SDS011;28498;54.400;18.566;2024-02-16T11:09:47;22.02;;;12.90;;
42364;SDS011;28498;54.400;18.566;2024-02-16T11:12:15;22.42;;;13.30;;
42364;SDS011;28498;54.400;18.566;2024-02-16T11:14:46;21.48;;;13.13;;
42364;SDS011;28498;54.400;18.566;2024-02-16T11:17:22;21.73;;;12.93;;
42364;SDS011;28498;54.400;18.566;2024-02-16T11:19:50;22.92;;;12.07;;
42364;SDS011;28498;54.400;18.566;2024-02-16T11:22:20;23.42;;;13.65;;
42364;SDS011;28498;54.400;18.566;2024-02-16T11:24:52;20.50;;;11.82;;
42364;SDS011;28498;54.400;18.566;2024-02-16T11:27:25;20.70;;;12.10;;
42364;SDS011;28498;54.400;18.566;2024-02-16T11:29:53;18.98;;;11.55;;
42364;SDS011;28498;54.400;18.566;2024-02-16T11:32:22;20.75;;;11.75;;
42364;SDS011;28498;54.400;18.566;2024-02-16T11:34:49;21.95;;;12.10;;
42364;SDS011;28498;54.400;18.566;2024-02-16T11:37:16;18.20;;;10.88;;
42364;SDS011;28498;54.400;18.566;2024-02-16T11:39:44;22.25;;;11.80;;
42364;SDS011;28498;54.400;18.566;2024-02-16T11:42:13;17.67;;;10.20;;
42364;SDS011;28498;54.400;18.566;2024-02-16T11:44:50;14.57;;;9.43;;
42364;SDS011;28498;54.400;18.566;2024-02-16T11:47:20;16.00;;;8.88;;
42364;SDS011;28498;54.400;18.566;2024-02-16T11:50:07;16.35;;;8.98;;
42364;SDS011;28498;54.400;18.566;2024-02-16T11:52:38;14.50;;;9.13;;
42364;SDS011;28498;54.400;18.566;2024-02-16T11:55:12;16.70;;;9.32;;
42364;SDS011;28498;54.400;18.566;2024-02-16T11:57:41;15.55;;;9.15;;
42364;SDS011;28498;54.400;18.566;2024-02-16T12:00:08;13.75;;;8.80;;
42364;SDS011;28498;54.400;18.566;2024-02-16T12:02:42;14.43;;;9.07;;
42364;SDS011;28498;54.400;18.566;2024-02-16T12:05:09;16.10;;;10.07;;
42364;SDS011;28498;54.400;18.566;2024-02-16T12:07:41;14.50;;;8.63;;
42364;SDS011;28498;54.400;18.566;2024-02-16T12:10:10;15.50;;;8.48;;
42364;SDS011;28498;54.400;18.566;2024-02-16T12:12:37;13.77;;;8.27;;
42364;SDS011;28498;54.400;18.566;2024-02-16T12:15:05;12.93;;;8.63;;
42364;SDS011;28498;54.400;18.566;2024-02-16T12:17:34;13.85;;;9.23;;
42364;SDS011;28498;54.400;18.566;2024-02-16T12:20:01;13.85;;;9.00;;
42364;SDS011;28498;54.400;18.566;2024-02-16T12:22:29;16.25;;;8.75;;
42364;SDS011;28498;54.400;18.566;2024-02-16T12:24:56;14.80;;;8.07;;
42364;SDS011;28498;54.400;18.566;2024-02-16T12:27:28;14.65;;;8.75;;
42364;SDS011;28498;54.400;18.566;2024-02-16T12:29:55;15.07;;;8.20;;
42364;SDS011;28498;54.400;18.566;2024-02-16T12:32:22;16.75;;;8.65;;
42364;SDS011;28498;54.400;18.566;2024-02-16T12:34:50;15.40;;;8.50;;
42364;SDS011;28498;54.400;18.566;2024-02-16T12:37:17;17.17;;;8.25;;
42364;SDS011;28498;54.400;18.566;2024-02-16T12:39:44;13.15;;;7.93;;
42364;SDS011;28498;54.400;18.566;2024-02-16T12:42:12;13.57;;;8.30;;
42364;SDS011;28498;54.400;18.566;2024-02-16T12:44:40;15.43;;;8.70;;
42364;SDS011;28498;54.400;18.566;2024-02-16T12:47:07;14.50;;;7.93;;
42364;SDS011;28498;54.400;18.566;2024-02-16T12:49:35;14.32;;;7.97;;
42364;SDS011;28498;54.400;18.566;2024-02-16T12:52:02;16.15;;;8.73;;
42364;SDS011;28498;54.400;18.566;2024-02-16T12:54:29;15.07;;;8.90;;
42364;SDS011;28498;54.400;18.566;2024-02-16T12:56:58;15.77;;;9.15;;
42364;SDS011;28498;54.400;18.566;2024-02-16T12:59:25;16.90;;;9.27;;
42364;SDS011;28498;54.400;18.566;2024-02-16T13:01:52;15.30;;;9.25;;
42364;SDS011;28498;54.400;18.566;2024-02-16T13:04:19;14.75;;;9.57;;
42364;SDS011;28498;54.400;18.566;2024-02-16T13:06:50;18.52;;;10.15;;
42364;SDS011;28498;54.400;18.566;2024-02-16T13:09:19;18.70;;;10.70;;
42364;SDS011;28498;54.400;18.566;2024-02-16T13:11:46;18.40;;;9.70;;
42364;SDS011;28498;54.400;18.566;2024-02-16T13:14:21;19.90;;;9.30;;
42364;SDS011;28498;54.400;18.566;2024-02-16T13:16:48;15.63;;;8.50;;
42364;SDS011;28498;54.400;18.566;2024-02-16T13:19:15;15.60;;;7.95;;
42364;SDS011;28498;54.400;18.566;2024-02-16T13:21:45;13.32;;;8.65;;
42364;SDS011;28498;54.400;18.566;2024-02-16T13:24:12;16.38;;;9.10;;
42364;SDS011;28498;54.400;18.566;2024-02-16T13:26:40;14.27;;;8.25;;
42364;SDS011;28498;54.400;18.566;2024-02-16T13:29:07;15.30;;;8.45;;
42364;SDS011;28498;54.400;18.566;2024-02-16T13:31:34;18.17;;;9.13;;
42364;SDS011;28498;54.400;18.566;2024-02-16T13:34:01;13.20;;;8.07;;
42364;SDS011;28498;54.400;18.566;2024-02-16T13:36:28;14.65;;;8.40;;
42364;SDS011;28498;54.400;18.566;2024-02-16T13:38:55;15.23;;;8.05;;
42364;SDS011;28498;54.400;18.566;2024-02-16T13:41:22;13.63;;;8.10;;
42364;SDS011;28498;54.400;18.566;2024-02-16T13:43:50;13.85;;;8.13;;
42364;SDS011;28498;54.400;18.566;2024-02-16T13:46:18;15.30;;;8.50;;
42364;SDS011;28498;54.400;18.566;2024-02-16T13:48:45;13.35;;;8.18;;
42364;SDS011;28498;54.400;18.566;2024-02-16T13:51:12;13.48;;;8.32;;
42364;SDS011;28498;54.400;18.566;2024-02-16T13:53:39;11.60;;;7.45;;
42364;SDS011;28498;54.400;18.566;2024-02-16T13:56:06;16.58;;;8.15;;
42364;SDS011;28498;54.400;18.566;2024-02-16T13:58:34;14.48;;;7.72;;
42364;SDS011;28498;54.400;18.566;2024-02-16T14:01:03;13.80;;;7.65;;
42364;SDS011;28498;54.400;18.566;2024-02-16T14:03:31;13.38;;;7.75;;
42364;SDS011;28498;54.400;18.566;2024-02-16T14:06:00;14.23;;;8.40;;
42364;SDS011;28498;54.400;18.566;2024-02-16T14:08:27;12.55;;;7.38;;
42364;SDS011;28498;54.400;18.566;2024-02-16T14:10:54;14.10;;;8.35;;
42364;SDS011;28498;54.400;18.566;2024-02-16T14:13:22;17.30;;;8.60;;
42364;SDS011;28498;54.400;18.566;2024-02-16T14:15:51;16.23;;;8.65;;